sensor_id;sensor_type;location;lat;lon;timestamp;P1;durP1;ratioP1;P2;durP2;ratioP2
13743;SDS011;6943;52.368;9.966;2023-07-31T00:01:18;5.47;;;2.30;;
13743;SDS011;6943;52.368;9.966;2023-07-31T00:03:45;4.83;;;2.10;;
13743;SDS011;6943;52.368;9.966;2023-07-31T00:06:11;3.43;;;2.13;;
13743;SDS011;6943;52.368;9.966;2023-07-31T00:08:36;4.80;;;2.00;;
13743;SDS011;6943;52.368;9.966;2023-07-31T00:11:02;4.10;;;1.70;;
13743;SDS011;6943;52.368;9.966;2023-07-31T00:13:27;3.33;;;1.57;;
13743;SDS011;6943;52.368;9.966;2023-07-31T00:15:52;4.90;;;2.00;;
13743;SDS011;6943;52.368;9.966;2023-07-31T00:18:18;2.83;;;2.07;;
13743;SDS011;6943;52.368;9.966;2023-07-31T00:20:44;3.63;;;1.67;;
13743;SDS011;6943;52.368;9.966;2023-07-31T00:23:09;4.33;;;2.00;;
13743;SDS011;6943;52.368;9.966;2023-07-31T00:25:35;4.17;;;1.70;;
13743;SDS011;6943;52.368;9.966;2023-07-31T00:28:00;3.23;;;1.90;;
13743;SDS011;6943;52.368;9.966;2023-07-31T00:30:26;4.17;;;1.87;;
13743;SDS011;6943;52.368;9.966;2023-07-31T00:32:52;4.50;;;1.90;;
13743;SDS011;6943;52.368;9.966;2023-07-31T00:35:17;3.60;;;2.00;;
13743;SDS011;6943;52.368;9.966;2023-07-31T00:37:43;3.47;;;1.83;;
13743;SDS011;6943;52.368;9.966;2023-07-31T00:40:08;3.47;;;1.97;;
13743;SDS011;6943;52.368;9.966;2023-07-31T00:42:34;3.40;;;2.00;;
13743;SDS011;6943;52.368;9.966;2023-07-31T00:44:59;6.10;;;2.90;;
13743;SDS011;6943;52.368;9.966;2023-07-31T00:47:25;4.70;;;2.37;;
13743;SDS011;6943;52.368;9.966;2023-07-31T00:49:51;5.90;;;1.70;;
13743;SDS011;6943;52.368;9.966;2023-07-31T00:52:17;4.17;;;1.90;;
13743;SDS011;6943;52.368;9.966;2023-07-31T00:54:44;2.50;;;2.00;;
13743;SDS011;6943;52.368;9.966;2023-07-31T00:57:09;4.00;;;1.97;;
13743;SDS011;6943;52.368;9.966;2023-07-31T00:59:35;2.80;;;2.00;;
13743;SDS011;6943;52.368;9.966;2023-07-31T01:02:01;5.40;;;2.17;;
13743;SDS011;6943;52.368;9.966;2023-07-31T01:04:27;5.23;;;2.30;;
13743;SDS011;6943;52.368;9.966;2023-07-31T01:06:56;2.50;;;1.80;;
13743;SDS011;6943;52.368;9.966;2023-07-31T01:09:29;5.43;;;1.97;;
13743;SDS011;6943;52.368;9.966;2023-07-31T01:12:07;2.10;;;1.90;;
13743;SDS011;6943;52.368;9.966;2023-07-31T01:14:40;4.53;;;1.90;;
13743;SDS011;6943;52.368;9.966;2023-07-31T01:17:05;3.43;;;2.07;;
13743;SDS011;6943;52.368;9.966;2023-07-31T01:19:31;2.67;;;1.77;;
13743;SDS011;6943;52.368;9.966;2023-07-31T01:27:49;5.20;;;2.00;;
13743;SDS011;6943;52.368;9.966;2023-07-31T01:30:25;2.80;;;1.70;;
13743;SDS011;6943;52.368;9.966;2023-07-31T01:32:53;3.67;;;2.00;;
13743;SDS011;6943;52.368;9.966;2023-07-31T01:35:21;2.50;;;1.70;;
13743;SDS011;6943;52.368;9.966;2023-07-31T01:37:46;2.87;;;1.73;;
13743;SDS011;6943;52.368;9.966;2023-07-31T01:40:12;1.90;;;1.60;;
13743;SDS011;6943;52.368;9.966;2023-07-31T01:42:37;7.00;;;1.80;;
13743;SDS011;6943;52.368;9.966;2023-07-31T01:45:03;6.40;;;1.73;;
13743;SDS011;6943;52.368;9.966;2023-07-31T01:47:29;3.73;;;1.80;;
13743;SDS011;6943;52.368;9.966;2023-07-31T01:49:54;5.13;;;1.50;;
13743;SDS011;6943;52.368;9.966;2023-07-31T01:52:20;4.67;;;1.80;;
13743;SDS011;6943;52.368;9.966;2023-07-31T01:54:46;4.57;;;1.60;;
13743;SDS011;6943;52.368;9.966;2023-07-31T01:57:11;3.37;;;1.50;;
13743;SDS011;6943;52.368;9.966;2023-07-31T01:59:37;1.70;;;1.40;;
13743;SDS011;6943;52.368;9.966;2023-07-31T02:02:02;3.17;;;1.43;;
13743;SDS011;6943;52.368;9.966;2023-07-31T02:04:28;2.20;;;1.50;;
13743;SDS011;6943;52.368;9.966;2023-07-31T02:06:53;2.67;;;1.57;;
13743;SDS011;6943;52.368;9.966;2023-07-31T02:09:19;1.97;;;1.50;;
13743;SDS011;6943;52.368;9.966;2023-07-31T02:11:45;2.40;;;1.40;;
13743;SDS011;6943;52.368;9.966;2023-07-31T02:14:11;2.00;;;1.27;;
13743;SDS011;6943;52.368;9.966;2023-07-31T02:16:36;3.37;;;1.27;;
13743;SDS011;6943;52.368;9.966;2023-07-31T02:19:02;2.70;;;1.43;;
13743;SDS011;6943;52.368;9.966;2023-07-31T02:21:27;2.00;;;1.30;;
13743;SDS011;6943;52.368;9.966;2023-07-31T02:23:53;3.83;;;1.23;;
13743;SDS011;6943;52.368;9.966;2023-07-31T02:26:18;2.20;;;1.40;;
13743;SDS011;6943;52.368;9.966;2023-07-31T02:28:44;3.40;;;1.30;;
13743;SDS011;6943;52.368;9.966;2023-07-31T02:31:09;2.00;;;1.10;;
13743;SDS011;6943;52.368;9.966;2023-07-31T02:33:35;2.90;;;1.57;;
13743;SDS011;6943;52.368;9.966;2023-07-31T02:36:00;1.17;;;1.00;;
13743;SDS011;6943;52.368;9.966;2023-07-31T02:38:26;1.83;;;1.20;;
13743;SDS011;6943;52.368;9.966;2023-07-31T02:40:51;1.73;;;1.23;;
13743;SDS011;6943;52.368;9.966;2023-07-31T02:43:17;3.10;;;1.10;;
13743;SDS011;6943;52.368;9.966;2023-07-31T02:45:42;1.60;;;1.20;;
13743;SDS011;6943;52.368;9.966;2023-07-31T02:48:08;3.80;;;1.40;;
13743;SDS011;6943;52.368;9.966;2023-07-31T02:50:33;2.20;;;1.30;;
13743;SDS011;6943;52.368;9.966;2023-07-31T02:52:59;1.50;;;1.17;;
13743;SDS011;6943;52.368;9.966;2023-07-31T02:55:24;1.40;;;1.00;;
13743;SDS011;6943;52.368;9.966;2023-07-31T02:57:50;2.23;;;1.50;;
13743;SDS011;6943;52.368;9.966;2023-07-31T03:00:17;2.33;;;1.10;;
13743;SDS011;6943;52.368;9.966;2023-07-31T03:02:42;2.60;;;1.23;;
13743;SDS011;6943;52.368;9.966;2023-07-31T03:05:08;3.03;;;1.10;;
13743;SDS011;6943;52.368;9.966;2023-07-31T03:07:33;1.37;;;1.20;;
13743;SDS011;6943;52.368;9.966;2023-07-31T03:09:59;1.43;;;1.33;;
13743;SDS011;6943;52.368;9.966;2023-07-31T03:12:24;2.37;;;1.10;;
13743;SDS011;6943;52.368;9.966;2023-07-31T03:14:50;1.30;;;1.20;;
13743;SDS011;6943;52.368;9.966;2023-07-31T03:17:15;2.30;;;1.07;;
13743;SDS011;6943;52.368;9.966;2023-07-31T03:19:41;2.17;;;1.37;;
13743;SDS011;6943;52.368;9.966;2023-07-31T03:22:06;8.97;;;1.50;;
13743;SDS011;6943;52.368;9.966;2023-07-31T03:24:32;1.37;;;1.13;;
13743;SDS011;6943;52.368;9.966;2023-07-31T03:26:57;2.37;;;0.80;;
13743;SDS011;6943;52.368;9.966;2023-07-31T03:29:23;1.83;;;1.20;;
13743;SDS011;6943;52.368;9.966;2023-07-31T03:31:48;1.20;;;0.90;;
13743;SDS011;6943;52.368;9.966;2023-07-31T03:34:14;2.23;;;0.83;;
13743;SDS011;6943;52.368;9.966;2023-07-31T03:36:39;1.40;;;0.80;;
13743;SDS011;6943;52.368;9.966;2023-07-31T03:39:05;1.20;;;0.73;;
13743;SDS011;6943;52.368;9.966;2023-07-31T03:41:30;3.37;;;1.10;;
13743;SDS011;6943;52.368;9.966;2023-07-31T03:43:56;2.20;;;1.10;;
13743;SDS011;6943;52.368;9.966;2023-07-31T03:46:22;1.43;;;1.13;;
13743;SDS011;6943;52.368;9.966;2023-07-31T03:48:48;2.23;;;1.00;;
13743;SDS011;6943;52.368;9.966;2023-07-31T03:51:14;2.07;;;1.23;;
13743;SDS011;6943;52.368;9.966;2023-07-31T03:53:39;1.13;;;1.03;;
13743;SDS011;6943;52.368;9.966;2023-07-31T03:56:05;1.47;;;1.00;;
13743;SDS011;6943;52.368;9.966;2023-07-31T03:58:30;1.97;;;1.33;;
13743;SDS011;6943;52.368;9.966;2023-07-31T04:00:56;0.97;;;0.90;;
13743;SDS011;6943;52.368;9.966;2023-07-31T04:03:21;1.23;;;0.93;;
13743;SDS011;6943;52.368;9.966;2023-07-31T04:05:47;1.40;;;1.10;;
13743;SDS011;6943;52.368;9.966;2023-07-31T04:08:12;1.27;;;0.80;;
13743;SDS011;6943;52.368;9.966;2023-07-31T04:10:38;1.23;;;1.13;;
13743;SDS011;6943;52.368;9.966;2023-07-31T04:13:03;1.73;;;1.10;;
13743;SDS011;6943;52.368;9.966;2023-07-31T04:15:29;2.17;;;1.23;;
13743;SDS011;6943;52.368;9.966;2023-07-31T04:17:54;2.17;;;1.00;;
13743;SDS011;6943;52.368;9.966;2023-07-31T04:20:20;1.63;;;1.30;;
13743;SDS011;6943;52.368;9.966;2023-07-31T04:22:45;1.57;;;1.30;;
13743;SDS011;6943;52.368;9.966;2023-07-31T04:25:11;2.53;;;1.20;;
13743;SDS011;6943;52.368;9.966;2023-07-31T04:27:36;3.57;;;1.00;;
13743;SDS011;6943;52.368;9.966;2023-07-31T04:30:02;1.37;;;1.23;;
13743;SDS011;6943;52.368;9.966;2023-07-31T04:32:28;1.20;;;1.00;;
13743;SDS011;6943;52.368;9.966;2023-07-31T04:34:54;0.90;;;0.90;;
13743;SDS011;6943;52.368;9.966;2023-07-31T04:37:20;1.87;;;1.53;;
13743;SDS011;6943;52.368;9.966;2023-07-31T04:39:46;2.00;;;1.40;;
13743;SDS011;6943;52.368;9.966;2023-07-31T04:42:11;1.30;;;1.10;;
13743;SDS011;6943;52.368;9.966;2023-07-31T04:44:37;2.30;;;1.17;;
13743;SDS011;6943;52.368;9.966;2023-07-31T04:47:02;1.37;;;1.23;;
13743;SDS011;6943;52.368;9.966;2023-07-31T04:49:28;1.40;;;1.30;;
13743;SDS011;6943;52.368;9.966;2023-07-31T04:51:54;1.27;;;1.00;;
13743;SDS011;6943;52.368;9.966;2023-07-31T04:54:19;2.23;;;1.30;;
13743;SDS011;6943;52.368;9.966;2023-07-31T04:56:45;2.77;;;1.30;;
13743;SDS011;6943;52.368;9.966;2023-07-31T04:59:10;1.57;;;0.90;;
13743;SDS011;6943;52.368;9.966;2023-07-31T05:01:35;1.10;;;1.00;;
13743;SDS011;6943;52.368;9.966;2023-07-31T05:04:01;1.30;;;0.90;;
13743;SDS011;6943;52.368;9.966;2023-07-31T05:06:27;1.73;;;1.00;;
13743;SDS011;6943;52.368;9.966;2023-07-31T05:08:52;1.67;;;1.23;;
13743;SDS011;6943;52.368;9.966;2023-07-31T05:11:18;1.37;;;0.90;;
13743;SDS011;6943;52.368;9.966;2023-07-31T05:13:43;1.47;;;0.80;;
13743;SDS011;6943;52.368;9.966;2023-07-31T05:16:09;1.83;;;1.17;;
13743;SDS011;6943;52.368;9.966;2023-07-31T05:18:34;0.83;;;0.80;;
13743;SDS011;6943;52.368;9.966;2023-07-31T05:21:00;1.20;;;0.70;;
13743;SDS011;6943;52.368;9.966;2023-07-31T05:23:25;1.97;;;1.00;;
13743;SDS011;6943;52.368;9.966;2023-07-31T05:25:51;2.23;;;0.90;;
13743;SDS011;6943;52.368;9.966;2023-07-31T05:28:16;0.87;;;0.80;;
13743;SDS011;6943;52.368;9.966;2023-07-31T05:30:42;0.70;;;0.70;;
13743;SDS011;6943;52.368;9.966;2023-07-31T05:33:07;2.13;;;1.00;;
13743;SDS011;6943;52.368;9.966;2023-07-31T05:35:33;1.33;;;0.90;;
13743;SDS011;6943;52.368;9.966;2023-07-31T05:37:58;0.93;;;0.80;;
13743;SDS011;6943;52.368;9.966;2023-07-31T05:40:24;1.50;;;1.00;;
13743;SDS011;6943;52.368;9.966;2023-07-31T05:42:49;1.30;;;1.00;;
13743;SDS011;6943;52.368;9.966;2023-07-31T05:45:15;1.50;;;1.40;;
13743;SDS011;6943;52.368;9.966;2023-07-31T05:47:40;0.97;;;0.90;;
13743;SDS011;6943;52.368;9.966;2023-07-31T05:50:06;1.80;;;0.97;;
13743;SDS011;6943;52.368;9.966;2023-07-31T05:52:32;1.60;;;1.30;;
13743;SDS011;6943;52.368;9.966;2023-07-31T05:54:57;1.60;;;1.50;;
13743;SDS011;6943;52.368;9.966;2023-07-31T05:57:23;2.67;;;2.00;;
13743;SDS011;6943;52.368;9.966;2023-07-31T05:59:48;2.50;;;2.17;;
13743;SDS011;6943;52.368;9.966;2023-07-31T06:02:14;3.40;;;2.73;;
13743;SDS011;6943;52.368;9.966;2023-07-31T06:04:39;6.53;;;3.63;;
13743;SDS011;6943;52.368;9.966;2023-07-31T06:07:05;5.17;;;3.63;;
13743;SDS011;6943;52.368;9.966;2023-07-31T06:09:30;3.90;;;3.50;;
13743;SDS011;6943;52.368;9.966;2023-07-31T06:11:56;6.50;;;4.17;;
13743;SDS011;6943;52.368;9.966;2023-07-31T06:14:22;5.10;;;4.30;;
13743;SDS011;6943;52.368;9.966;2023-07-31T06:16:47;6.67;;;5.13;;
13743;SDS011;6943;52.368;9.966;2023-07-31T06:19:13;6.07;;;5.47;;
13743;SDS011;6943;52.368;9.966;2023-07-31T06:21:38;6.53;;;5.57;;
13743;SDS011;6943;52.368;9.966;2023-07-31T06:24:05;5.93;;;5.33;;
13743;SDS011;6943;52.368;9.966;2023-07-31T06:26:31;7.47;;;5.90;;
13743;SDS011;6943;52.368;9.966;2023-07-31T06:28:56;7.27;;;5.83;;
13743;SDS011;6943;52.368;9.966;2023-07-31T06:31:22;6.97;;;5.80;;
13743;SDS011;6943;52.368;9.966;2023-07-31T06:33:51;7.27;;;6.50;;
13743;SDS011;6943;52.368;9.966;2023-07-31T06:36:17;5.83;;;5.20;;
13743;SDS011;6943;52.368;9.966;2023-07-31T06:38:42;7.37;;;5.50;;
13743;SDS011;6943;52.368;9.966;2023-07-31T06:41:08;6.47;;;5.80;;
13743;SDS011;6943;52.368;9.966;2023-07-31T06:43:35;6.60;;;5.33;;
13743;SDS011;6943;52.368;9.966;2023-07-31T06:46:04;6.17;;;5.33;;
13743;SDS011;6943;52.368;9.966;2023-07-31T06:48:31;7.60;;;6.10;;
13743;SDS011;6943;52.368;9.966;2023-07-31T06:50:57;7.40;;;5.70;;
13743;SDS011;6943;52.368;9.966;2023-07-31T06:53:22;6.17;;;5.57;;
13743;SDS011;6943;52.368;9.966;2023-07-31T06:55:48;8.03;;;5.90;;
13743;SDS011;6943;52.368;9.966;2023-07-31T06:58:16;6.00;;;5.37;;
13743;SDS011;6943;52.368;9.966;2023-07-31T07:00:42;7.60;;;5.97;;
13743;SDS011;6943;52.368;9.966;2023-07-31T07:03:07;7.20;;;6.27;;
13743;SDS011;6943;52.368;9.966;2023-07-31T07:05:33;8.47;;;6.70;;
13743;SDS011;6943;52.368;9.966;2023-07-31T07:07:59;9.57;;;6.97;;
13743;SDS011;6943;52.368;9.966;2023-07-31T07:10:24;11.50;;;7.70;;
13743;SDS011;6943;52.368;9.966;2023-07-31T07:12:50;9.33;;;7.23;;
13743;SDS011;6943;52.368;9.966;2023-07-31T07:15:15;12.07;;;7.77;;
13743;SDS011;6943;52.368;9.966;2023-07-31T07:17:41;13.57;;;8.63;;
13743;SDS011;6943;52.368;9.966;2023-07-31T07:20:07;12.37;;;8.53;;
13743;SDS011;6943;52.368;9.966;2023-07-31T07:22:33;11.27;;;9.17;;
13743;SDS011;6943;52.368;9.966;2023-07-31T07:24:58;12.43;;;9.47;;
13743;SDS011;6943;52.368;9.966;2023-07-31T07:27:24;13.03;;;9.67;;
13743;SDS011;6943;52.368;9.966;2023-07-31T07:29:50;12.27;;;10.40;;
13743;SDS011;6943;52.368;9.966;2023-07-31T07:32:17;14.33;;;10.60;;
13743;SDS011;6943;52.368;9.966;2023-07-31T07:34:43;16.40;;;10.17;;
13743;SDS011;6943;52.368;9.966;2023-07-31T07:37:08;15.40;;;10.83;;
13743;SDS011;6943;52.368;9.966;2023-07-31T07:39:34;16.17;;;11.10;;
13743;SDS011;6943;52.368;9.966;2023-07-31T07:42:00;12.47;;;10.83;;
13743;SDS011;6943;52.368;9.966;2023-07-31T07:44:25;14.87;;;11.17;;
13743;SDS011;6943;52.368;9.966;2023-07-31T07:46:51;13.63;;;11.07;;
13743;SDS011;6943;52.368;9.966;2023-07-31T07:49:17;12.40;;;10.47;;
13743;SDS011;6943;52.368;9.966;2023-07-31T07:51:43;13.63;;;10.33;;
13743;SDS011;6943;52.368;9.966;2023-07-31T07:54:08;14.30;;;9.83;;
13743;SDS011;6943;52.368;9.966;2023-07-31T07:56:34;12.50;;;9.37;;
13743;SDS011;6943;52.368;9.966;2023-07-31T07:59:01;12.33;;;9.83;;
13743;SDS011;6943;52.368;9.966;2023-07-31T08:01:27;12.90;;;9.87;;
13743;SDS011;6943;52.368;9.966;2023-07-31T08:03:52;10.53;;;9.07;;
13743;SDS011;6943;52.368;9.966;2023-07-31T08:06:18;13.87;;;8.13;;
13743;SDS011;6943;52.368;9.966;2023-07-31T08:08:43;10.57;;;9.37;;
13743;SDS011;6943;52.368;9.966;2023-07-31T08:11:09;11.73;;;8.00;;
13743;SDS011;6943;52.368;9.966;2023-07-31T08:13:34;12.97;;;8.90;;
13743;SDS011;6943;52.368;9.966;2023-07-31T08:16:01;10.90;;;8.17;;
13743;SDS011;6943;52.368;9.966;2023-07-31T08:18:28;11.67;;;7.20;;
13743;SDS011;6943;52.368;9.966;2023-07-31T08:20:53;10.37;;;6.70;;
13743;SDS011;6943;52.368;9.966;2023-07-31T08:23:18;9.87;;;6.47;;
13743;SDS011;6943;52.368;9.966;2023-07-31T08:25:44;9.07;;;6.67;;
13743;SDS011;6943;52.368;9.966;2023-07-31T08:28:10;12.10;;;7.03;;
13743;SDS011;6943;52.368;9.966;2023-07-31T08:30:35;7.37;;;6.47;;
13743;SDS011;6943;52.368;9.966;2023-07-31T08:33:01;10.57;;;6.30;;
13743;SDS011;6943;52.368;9.966;2023-07-31T08:35:27;8.67;;;6.00;;
13743;SDS011;6943;52.368;9.966;2023-07-31T08:37:53;11.80;;;6.30;;
13743;SDS011;6943;52.368;9.966;2023-07-31T08:40:19;9.53;;;6.37;;
13743;SDS011;6943;52.368;9.966;2023-07-31T08:42:46;9.03;;;6.47;;
13743;SDS011;6943;52.368;9.966;2023-07-31T08:45:17;10.90;;;6.50;;
13743;SDS011;6943;52.368;9.966;2023-07-31T08:47:44;7.40;;;5.67;;
13743;SDS011;6943;52.368;9.966;2023-07-31T08:50:12;11.73;;;6.60;;
13743;SDS011;6943;52.368;9.966;2023-07-31T08:52:39;11.03;;;6.33;;
13743;SDS011;6943;52.368;9.966;2023-07-31T08:55:08;9.50;;;6.30;;
13743;SDS011;6943;52.368;9.966;2023-07-31T08:57:35;7.13;;;6.03;;
13743;SDS011;6943;52.368;9.966;2023-07-31T09:00:02;8.93;;;5.73;;
13743;SDS011;6943;52.368;9.966;2023-07-31T09:02:36;8.43;;;5.90;;
13743;SDS011;6943;52.368;9.966;2023-07-31T09:05:06;11.03;;;5.77;;
13743;SDS011;6943;52.368;9.966;2023-07-31T09:07:33;9.37;;;6.00;;
13743;SDS011;6943;52.368;9.966;2023-07-31T09:10:00;9.63;;;6.50;;
13743;SDS011;6943;52.368;9.966;2023-07-31T09:12:25;9.30;;;6.57;;
13743;SDS011;6943;52.368;9.966;2023-07-31T09:14:51;8.80;;;5.83;;
13743;SDS011;6943;52.368;9.966;2023-07-31T09:17:28;9.00;;;5.43;;
13743;SDS011;6943;52.368;9.966;2023-07-31T09:19:57;10.23;;;5.67;;
13743;SDS011;6943;52.368;9.966;2023-07-31T09:22:37;11.33;;;5.70;;
13743;SDS011;6943;52.368;9.966;2023-07-31T09:25:45;10.47;;;5.80;;
13743;SDS011;6943;52.368;9.966;2023-07-31T09:27:53;7.90;;;5.70;;
13743;SDS011;6943;52.368;9.966;2023-07-31T09:30:19;7.40;;;5.87;;
13743;SDS011;6943;52.368;9.966;2023-07-31T09:32:45;7.77;;;5.10;;
13743;SDS011;6943;52.368;9.966;2023-07-31T09:35:26;8.57;;;4.90;;
13743;SDS011;6943;52.368;9.966;2023-07-31T09:37:55;9.03;;;4.90;;
13743;SDS011;6943;52.368;9.966;2023-07-31T09:40:32;9.27;;;4.97;;
13743;SDS011;6943;52.368;9.966;2023-07-31T09:43:00;5.33;;;4.27;;
13743;SDS011;6943;52.368;9.966;2023-07-31T09:45:27;6.80;;;4.50;;
13743;SDS011;6943;52.368;9.966;2023-07-31T09:47:54;5.33;;;4.30;;
13743;SDS011;6943;52.368;9.966;2023-07-31T09:50:20;5.30;;;4.40;;
13743;SDS011;6943;52.368;9.966;2023-07-31T09:52:47;5.30;;;4.60;;
13743;SDS011;6943;52.368;9.966;2023-07-31T09:55:12;5.57;;;3.93;;
13743;SDS011;6943;52.368;9.966;2023-07-31T09:57:42;5.07;;;3.13;;
13743;SDS011;6943;52.368;9.966;2023-07-31T10:00:10;3.23;;;2.90;;
13743;SDS011;6943;52.368;9.966;2023-07-31T10:02:37;4.17;;;3.10;;
13743;SDS011;6943;52.368;9.966;2023-07-31T10:05:04;5.37;;;3.20;;
13743;SDS011;6943;52.368;9.966;2023-07-31T10:07:31;4.80;;;2.67;;
13743;SDS011;6943;52.368;9.966;2023-07-31T10:10:01;4.60;;;2.90;;
13743;SDS011;6943;52.368;9.966;2023-07-31T10:12:28;4.07;;;2.80;;
13743;SDS011;6943;52.368;9.966;2023-07-31T10:14:55;4.80;;;2.80;;
13743;SDS011;6943;52.368;9.966;2023-07-31T10:17:22;2.97;;;2.67;;
13743;SDS011;6943;52.368;9.966;2023-07-31T10:19:49;3.13;;;2.50;;
13743;SDS011;6943;52.368;9.966;2023-07-31T10:22:15;5.10;;;2.60;;
13743;SDS011;6943;52.368;9.966;2023-07-31T10:24:43;3.17;;;2.70;;
13743;SDS011;6943;52.368;9.966;2023-07-31T10:27:10;4.40;;;2.57;;
13743;SDS011;6943;52.368;9.966;2023-07-31T10:29:39;3.83;;;2.43;;
13743;SDS011;6943;52.368;9.966;2023-07-31T10:32:06;3.30;;;2.70;;
13743;SDS011;6943;52.368;9.966;2023-07-31T10:34:35;3.10;;;2.67;;
13743;SDS011;6943;52.368;9.966;2023-07-31T10:37:20;3.47;;;2.73;;
13743;SDS011;6943;52.368;9.966;2023-07-31T10:45:27;3.47;;;2.33;;
13743;SDS011;6943;52.368;9.966;2023-07-31T10:48:02;2.73;;;2.47;;
13743;SDS011;6943;52.368;9.966;2023-07-31T10:50:30;3.70;;;2.37;;
13743;SDS011;6943;52.368;9.966;2023-07-31T10:52:59;4.67;;;2.97;;
13743;SDS011;6943;52.368;9.966;2023-07-31T10:55:29;3.83;;;2.50;;
13743;SDS011;6943;52.368;9.966;2023-07-31T10:58:05;3.87;;;2.27;;
13743;SDS011;6943;52.368;9.966;2023-07-31T11:00:38;2.37;;;2.10;;
13743;SDS011;6943;52.368;9.966;2023-07-31T11:03:05;3.50;;;2.83;;
13743;SDS011;6943;52.368;9.966;2023-07-31T11:08:17;3.87;;;2.30;;
13743;SDS011;6943;52.368;9.966;2023-07-31T11:10:47;3.33;;;2.20;;
13743;SDS011;6943;52.368;9.966;2023-07-31T11:13:45;2.90;;;2.60;;
13743;SDS011;6943;52.368;9.966;2023-07-31T11:16:11;4.67;;;2.77;;
13743;SDS011;6943;52.368;9.966;2023-07-31T11:18:41;3.53;;;2.97;;
13743;SDS011;6943;52.368;9.966;2023-07-31T11:21:18;4.23;;;2.97;;
13743;SDS011;6943;52.368;9.966;2023-07-31T11:23:45;3.93;;;2.83;;
13743;SDS011;6943;52.368;9.966;2023-07-31T11:26:12;3.53;;;2.50;;
13743;SDS011;6943;52.368;9.966;2023-07-31T11:28:38;3.47;;;2.73;;
13743;SDS011;6943;52.368;9.966;2023-07-31T11:31:03;4.00;;;2.57;;
13743;SDS011;6943;52.368;9.966;2023-07-31T11:33:29;2.97;;;2.50;;
13743;SDS011;6943;52.368;9.966;2023-07-31T11:35:55;3.73;;;2.70;;
13743;SDS011;6943;52.368;9.966;2023-07-31T11:38:24;4.10;;;2.80;;
13743;SDS011;6943;52.368;9.966;2023-07-31T11:40:53;4.17;;;2.80;;
13743;SDS011;6943;52.368;9.966;2023-07-31T11:43:19;2.47;;;2.27;;
13743;SDS011;6943;52.368;9.966;2023-07-31T11:45:49;3.23;;;2.07;;
13743;SDS011;6943;52.368;9.966;2023-07-31T11:48:19;3.37;;;2.47;;
13743;SDS011;6943;52.368;9.966;2023-07-31T11:50:57;2.93;;;2.60;;
13743;SDS011;6943;52.368;9.966;2023-07-31T11:53:26;2.80;;;2.37;;
13743;SDS011;6943;52.368;9.966;2023-07-31T11:55:53;2.60;;;2.13;;
13743;SDS011;6943;52.368;9.966;2023-07-31T11:58:20;3.13;;;1.90;;
13743;SDS011;6943;52.368;9.966;2023-07-31T12:00:46;2.63;;;2.00;;
13743;SDS011;6943;52.368;9.966;2023-07-31T12:03:13;6.17;;;2.10;;
13743;SDS011;6943;52.368;9.966;2023-07-31T12:05:39;3.60;;;2.07;;
13743;SDS011;6943;52.368;9.966;2023-07-31T12:08:10;4.27;;;2.13;;
13743;SDS011;6943;52.368;9.966;2023-07-31T12:10:36;3.03;;;2.20;;
13743;SDS011;6943;52.368;9.966;2023-07-31T12:13:03;2.20;;;2.00;;
13743;SDS011;6943;52.368;9.966;2023-07-31T12:15:33;2.47;;;2.10;;
13743;SDS011;6943;52.368;9.966;2023-07-31T12:18:10;4.67;;;2.13;;
13743;SDS011;6943;52.368;9.966;2023-07-31T12:20:40;3.73;;;2.17;;
13743;SDS011;6943;52.368;9.966;2023-07-31T12:23:17;2.63;;;2.27;;
13743;SDS011;6943;52.368;9.966;2023-07-31T12:25:54;3.17;;;1.80;;
13743;SDS011;6943;52.368;9.966;2023-07-31T12:28:34;2.60;;;1.67;;
13743;SDS011;6943;52.368;9.966;2023-07-31T12:31:05;2.03;;;1.67;;
13743;SDS011;6943;52.368;9.966;2023-07-31T12:33:31;2.00;;;1.80;;
13743;SDS011;6943;52.368;9.966;2023-07-31T12:35:59;1.37;;;1.27;;
13743;SDS011;6943;52.368;9.966;2023-07-31T12:38:29;2.13;;;1.80;;
13743;SDS011;6943;52.368;9.966;2023-07-31T12:40:55;1.90;;;1.50;;
13743;SDS011;6943;52.368;9.966;2023-07-31T12:43:21;1.60;;;1.50;;
13743;SDS011;6943;52.368;9.966;2023-07-31T12:45:46;2.73;;;1.37;;
13743;SDS011;6943;52.368;9.966;2023-07-31T12:48:12;3.30;;;1.57;;
13743;SDS011;6943;52.368;9.966;2023-07-31T12:50:38;3.10;;;1.40;;
13743;SDS011;6943;52.368;9.966;2023-07-31T12:53:04;2.17;;;1.43;;
13743;SDS011;6943;52.368;9.966;2023-07-31T12:55:30;2.43;;;1.13;;
13743;SDS011;6943;52.368;9.966;2023-07-31T12:57:56;2.40;;;1.20;;
13743;SDS011;6943;52.368;9.966;2023-07-31T13:00:22;1.40;;;1.23;;
13743;SDS011;6943;52.368;9.966;2023-07-31T13:02:47;1.73;;;1.53;;
13743;SDS011;6943;52.368;9.966;2023-07-31T13:05:13;1.17;;;1.07;;
13743;SDS011;6943;52.368;9.966;2023-07-31T13:07:39;1.20;;;1.10;;
13743;SDS011;6943;52.368;9.966;2023-07-31T13:10:05;1.10;;;1.00;;
13743;SDS011;6943;52.368;9.966;2023-07-31T13:12:31;1.97;;;1.10;;
13743;SDS011;6943;52.368;9.966;2023-07-31T13:14:57;1.30;;;1.10;;
13743;SDS011;6943;52.368;9.966;2023-07-31T13:17:23;1.10;;;1.00;;
13743;SDS011;6943;52.368;9.966;2023-07-31T13:19:48;1.10;;;1.00;;
13743;SDS011;6943;52.368;9.966;2023-07-31T13:22:14;2.27;;;1.47;;
13743;SDS011;6943;52.368;9.966;2023-07-31T13:24:39;3.33;;;1.20;;
13743;SDS011;6943;52.368;9.966;2023-07-31T13:27:05;0.97;;;0.87;;
13743;SDS011;6943;52.368;9.966;2023-07-31T13:29:30;2.00;;;1.20;;
13743;SDS011;6943;52.368;9.966;2023-07-31T13:31:57;1.20;;;1.00;;
13743;SDS011;6943;52.368;9.966;2023-07-31T13:34:22;1.77;;;1.33;;
13743;SDS011;6943;52.368;9.966;2023-07-31T13:36:48;2.20;;;1.17;;
13743;SDS011;6943;52.368;9.966;2023-07-31T13:39:13;1.23;;;1.13;;
13743;SDS011;6943;52.368;9.966;2023-07-31T13:41:39;1.43;;;1.07;;
13743;SDS011;6943;52.368;9.966;2023-07-31T13:44:04;1.07;;;0.83;;
13743;SDS011;6943;52.368;9.966;2023-07-31T13:46:30;1.83;;;1.20;;
13743;SDS011;6943;52.368;9.966;2023-07-31T13:48:57;2.60;;;1.13;;
13743;SDS011;6943;52.368;9.966;2023-07-31T13:51:24;2.20;;;1.00;;
13743;SDS011;6943;52.368;9.966;2023-07-31T13:53:50;0.90;;;0.90;;
13743;SDS011;6943;52.368;9.966;2023-07-31T13:56:15;1.03;;;0.90;;
13743;SDS011;6943;52.368;9.966;2023-07-31T13:58:41;0.70;;;0.60;;
13743;SDS011;6943;52.368;9.966;2023-07-31T14:01:06;1.07;;;0.80;;
13743;SDS011;6943;52.368;9.966;2023-07-31T14:03:32;0.80;;;0.60;;
13743;SDS011;6943;52.368;9.966;2023-07-31T14:05:57;1.27;;;0.80;;
13743;SDS011;6943;52.368;9.966;2023-07-31T14:08:23;1.00;;;0.80;;
13743;SDS011;6943;52.368;9.966;2023-07-31T14:10:49;1.00;;;0.80;;
13743;SDS011;6943;52.368;9.966;2023-07-31T14:13:14;0.90;;;0.70;;
13743;SDS011;6943;52.368;9.966;2023-07-31T14:15:41;1.90;;;0.73;;
13743;SDS011;6943;52.368;9.966;2023-07-31T14:18:08;2.87;;;1.13;;
13743;SDS011;6943;52.368;9.966;2023-07-31T14:20:33;0.80;;;0.70;;
13743;SDS011;6943;52.368;9.966;2023-07-31T14:22:59;3.13;;;0.70;;
13743;SDS011;6943;52.368;9.966;2023-07-31T14:25:24;2.43;;;0.70;;
13743;SDS011;6943;52.368;9.966;2023-07-31T14:27:50;2.50;;;1.30;;
13743;SDS011;6943;52.368;9.966;2023-07-31T14:30:15;1.83;;;0.90;;
13743;SDS011;6943;52.368;9.966;2023-07-31T14:32:42;1.07;;;0.97;;
13743;SDS011;6943;52.368;9.966;2023-07-31T14:35:07;1.00;;;0.87;;
13743;SDS011;6943;52.368;9.966;2023-07-31T14:37:36;1.57;;;1.20;;
13743;SDS011;6943;52.368;9.966;2023-07-31T14:40:06;2.50;;;1.07;;
13743;SDS011;6943;52.368;9.966;2023-07-31T14:42:33;1.20;;;1.10;;
13743;SDS011;6943;52.368;9.966;2023-07-31T14:44:59;2.93;;;1.33;;
13743;SDS011;6943;52.368;9.966;2023-07-31T14:47:25;1.43;;;1.33;;
13743;SDS011;6943;52.368;9.966;2023-07-31T14:49:50;1.83;;;1.53;;
13743;SDS011;6943;52.368;9.966;2023-07-31T14:52:16;2.60;;;1.80;;
13743;SDS011;6943;52.368;9.966;2023-07-31T14:54:42;2.27;;;1.60;;
13743;SDS011;6943;52.368;9.966;2023-07-31T14:57:08;2.10;;;1.90;;
13743;SDS011;6943;52.368;9.966;2023-07-31T14:59:33;3.67;;;1.70;;
13743;SDS011;6943;52.368;9.966;2023-07-31T15:01:59;2.67;;;2.00;;
13743;SDS011;6943;52.368;9.966;2023-07-31T15:04:24;2.40;;;2.20;;
13743;SDS011;6943;52.368;9.966;2023-07-31T15:06:50;2.50;;;2.30;;
13743;SDS011;6943;52.368;9.966;2023-07-31T15:09:16;2.67;;;2.47;;
13743;SDS011;6943;52.368;9.966;2023-07-31T15:11:42;3.10;;;2.70;;